Time;durP1;ratioP1;P1;durP2;ratioP2;P2;SDS_P1;SDS_P2;PMS_P1;PMS_P2;Temp;Humidity;BMP_temperature;BMP_pressure;BME280_temperature;BME280_humidity;BME280_pressure;Samples;Min_cycle;Max_cycle;Signal;HPM_P1;HPM_P2
2021/01/25 00:00:33;;;;;;;32.77;16.00;;;;;;;5.56;80.34;99296.97;121713;1141;104530;-75
2021/01/25 00:03:11;;;;;;;29.83;15.23;;;;;;;5.55;80.09;99285.69;121353;1141;103340;-77
2021/01/25 00:05:43;;;;;;;28.70;14.70;;;;;;;5.55;79.94;99277.01;121736;1141;104451;-77
2021/01/25 00:08:13;;;;;;;27.37;14.00;;;;;;;5.59;80.28;99273.66;121369;1141;104464;-78
2021/01/25 00:10:42;;;;;;;25.00;13.43;;;;;;;5.58;79.95;99275.39;121285;1141;104396;-78
2021/01/25 00:13:11;;;;;;;27.73;14.53;;;;;;;5.56;80.00;99263.14;121747;1141;104562;-77
2021/01/25 00:15:43;;;;;;;27.90;15.27;;;;;;;5.53;80.01;99268.23;121343;1141;104452;-77
2021/01/25 00:18:12;;;;;;;26.53;14.80;;;;;;;5.51;80.09;99280.31;121653;1141;104344;-77
2021/01/25 00:20:42;;;;;;;28.57;14.33;;;;;;;5.42;80.07;99266.97;121352;1141;104439;-77
2021/01/25 00:23:11;;;;;;;26.83;13.60;;;;;;;5.38;79.75;99261.66;121707;1141;104455;-77
2021/01/25 00:25:40;;;;;;;27.07;13.63;;;;;;;5.39;80.10;99253.03;121755;1141;104451;-79
2021/01/25 00:28:09;;;;;;;25.47;13.13;;;;;;;5.40;80.26;99252.18;121727;1141;104327;-76
2021/01/25 00:30:38;;;;;;;27.77;14.43;;;;;;;5.40;80.03;99259.11;121732;1141;104341;-80
2021/01/25 00:33:07;;;;;;;27.93;13.97;;;;;;;5.38;79.81;99245.17;121764;1141;104535;-78
2021/01/25 00:35:38;;;;;;;29.57;14.33;;;;;;;5.31;79.79;99238.84;121334;1141;104404;-77
2021/01/25 00:38:07;;;;;;;28.70;15.13;;;;;;;5.26;80.13;99239.52;121745;1141;104456;-77
2021/01/25 00:40:36;;;;;;;26.03;12.80;;;;;;;5.24;79.76;99229.06;121384;1141;104348;-77
2021/01/25 00:43:05;;;;;;;26.37;13.10;;;;;;;5.24;79.43;99230.78;121740;1141;104338;-77
2021/01/25 00:45:34;;;;;;;26.60;13.40;;;;;;;5.26;79.94;99211.78;121370;1141;104336;-77
2021/01/25 00:48:04;;;;;;;26.30;13.30;;;;;;;5.29;80.23;99211.90;121671;1141;104432;-77
2021/01/25 00:50:41;;;;;;;30.43;14.40;;;;;;;5.30;80.27;99202.37;121305;1141;104336;-77
2021/01/25 00:53:12;;;;;;;26.77;13.93;;;;;;;5.28;79.78;99194.51;121628;1141;104359;-77
2021/01/25 00:55:44;;;;;;;30.10;14.70;;;;;;;5.28;80.33;99197.11;121659;1141;104466;-77
2021/01/25 00:58:14;;;;;;;26.37;13.87;;;;;;;5.26;79.92;99200.51;121621;1141;104460;-77
2021/01/25 01:00:43;;;;;;;27.53;14.80;;;;;;;5.22;79.86;99196.92;121701;1141;104439;-77
2021/01/25 01:03:12;;;;;;;27.57;13.80;;;;;;;5.19;79.77;99192.48;121321;1141;104371;-77
2021/01/25 01:05:40;;;;;;;26.17;13.47;;;;;;;5.20;80.06;99191.66;121728;1141;104383;-78
2021/01/25 01:08:09;;;;;;;27.23;13.23;;;;;;;5.18;79.94;99185.50;121411;1141;104330;-79
2021/01/25 01:10:38;;;;;;;26.33;13.83;;;;;;;5.16;80.29;99183.70;121685;1141;104364;-76
2021/01/25 01:13:07;;;;;;;25.57;13.47;;;;;;;5.15;79.78;99179.31;121709;1141;104338;-77
2021/01/25 01:15:36;;;;;;;27.63;14.03;;;;;;;5.13;80.15;99178.38;121714;1141;104825;-76
2021/01/25 01:18:06;;;;;;;26.07;13.63;;;;;;;5.12;80.24;99182.67;121702;1141;104337;-77
2021/01/25 01:20:34;;;;;;;29.43;14.43;;;;;;;5.05;79.64;99180.70;121770;1141;104445;-77
2021/01/25 01:23:03;;;;;;;28.87;13.80;;;;;;;5.04;80.06;99171.13;121418;1141;104428;-77
2021/01/25 01:25:32;;;;;;;24.67;12.27;;;;;;;5.01;79.69;99164.08;121347;1141;104463;-77
2021/01/25 01:28:01;;;;;;;25.90;12.30;;;;;;;4.99;79.89;99154.48;121701;1141;104343;-77
2021/01/25 01:30:30;;;;;;;27.60;13.20;;;;;;;4.98;79.72;99152.70;121751;1141;104462;-79
2021/01/25 01:32:59;;;;;;;26.23;12.90;;;;;;;4.97;80.01;99144.02;121367;1141;104394;-76
2021/01/25 01:35:28;;;;;;;27.37;13.07;;;;;;;4.98;79.70;99140.58;121700;1141;104439;-76
2021/01/25 01:37:57;;;;;;;27.57;14.40;;;;;;;4.96;79.82;99152.64;121673;1141;104447;-77
2021/01/25 01:40:26;;;;;;;29.30;13.83;;;;;;;4.94;79.71;99141.31;121698;1141;104340;-77
2021/01/25 01:42:55;;;;;;;28.67;14.43;;;;;;;4.92;79.93;99136.88;121344;1141;104332;-77
2021/01/25 01:45:24;;;;;;;28.13;13.43;;;;;;;4.87;79.93;99147.11;121761;1141;104761;-76
2021/01/25 01:47:55;;;;;;;28.43;13.23;;;;;;;4.86;79.70;99147.92;121343;1141;104783;-76
2021/01/25 01:50:24;;;;;;;25.90;12.40;;;;;;;4.86;79.69;99132.33;121691;1141;104314;-77
2021/01/25 01:52:54;;;;;;;26.33;12.67;;;;;;;4.88;79.30;99125.49;121706;1141;104364;-77
2021/01/25 01:55:24;;;;;;;26.13;13.67;;;;;;;4.91;79.70;99117.81;121696;1141;104846;-77
2021/01/25 01:57:54;;;;;;;23.40;12.57;;;;;;;4.94;79.70;99114.41;121374;1141;104362;-78
2021/01/25 02:00:24;;;;;;;27.90;12.83;;;;;;;4.93;79.76;99110.94;121720;1141;104416;-76
2021/01/25 02:02:52;;;;;;;28.60;13.23;;;;;;;4.92;79.65;99109.16;121326;1141;104337;-76
2021/01/25 02:05:23;;;;;;;24.27;12.77;;;;;;;4.90;79.64;99112.55;121655;1141;104455;-76
2021/01/25 02:07:53;;;;;;;26.67;12.70;;;;;;;4.86;79.74;99101.14;121282;1141;104407;-77
2021/01/25 02:10:24;;;;;;;25.57;12.47;;;;;;;4.83;79.56;99112.33;121714;1141;104524;-76
2021/01/25 02:12:59;;;;;;;23.63;12.17;;;;;;;4.81;79.38;99106.17;121375;1141;104477;-76
2021/01/25 02:15:29;;;;;;;26.10;11.73;;;;;;;4.78;79.60;99107.78;121670;1141;104332;-77
2021/01/25 02:18:09;;;;;;;27.63;13.30;;;;;;;4.76;79.59;99106.85;121718;1141;104463;-77
2021/01/25 02:20:44;;;;;;;25.13;13.47;;;;;;;4.74;80.01;99096.40;121317;1144;104514;-77
2021/01/25 02:23:41;;;;;;;24.30;12.40;;;;;;;4.73;79.62;99099.81;121349;1144;105906;-77
2021/01/25 02:26:21;;;;;;;25.50;11.17;;;;;;;4.72;79.74;99085.08;121348;1144;104352;-78
2021/01/25 02:28:51;;;;;;;22.80;11.03;;;;;;;4.74;79.76;99072.14;121344;1143;104611;-79
2021/01/25 02:31:28;;;;;;;24.73;10.57;;;;;;;4.76;79.70;99060.08;121357;1144;105304;-76
2021/01/25 02:33:58;;;;;;;22.80;11.20;;;;;;;4.74;79.13;99061.75;121342;1144;104838;-76
2021/01/25 02:36:30;;;;;;;22.10;10.57;;;;;;;4.76;79.28;99054.88;121345;1144;104500;-77
2021/01/25 02:39:03;;;;;;;23.60;11.43;;;;;;;4.75;79.18;99053.97;121336;1144;104374;-77
2021/01/25 02:41:32;;;;;;;23.27;11.27;;;;;;;4.73;79.78;99053.04;121316;1142;104482;-76
2021/01/25 02:44:06;;;;;;;23.40;10.30;;;;;;;4.70;79.41;99045.13;121327;1144;104476;-76
2021/01/25 02:46:36;;;;;;;22.90;11.40;;;;;;;4.67;79.60;99034.63;121348;1143;104489;-78
2021/01/25 02:49:05;;;;;;;19.30;9.13;;;;;;;4.66;79.50;99032.89;121413;1144;104444;-77
2021/01/25 02:51:34;;;;;;;22.23;9.93;;;;;;;4.67;79.64;99045.94;121387;1143;104570;-78
2021/01/25 02:54:04;;;;;;;22.87;9.67;;;;;;;4.70;79.48;99036.47;121364;1143;104396;-78
2021/01/25 02:56:33;;;;;;;21.90;9.40;;;;;;;4.70;79.52;99028.67;121345;1144;104843;-77
2021/01/25 02:59:02;;;;;;;21.83;10.20;;;;;;;4.70;79.28;99019.16;121333;1144;104420;-76
2021/01/25 03:01:32;;;;;;;22.50;10.03;;;;;;;4.69;80.13;99030.39;121321;1142;104480;-77
2021/01/25 03:04:02;;;;;;;21.20;9.73;;;;;;;4.67;79.16;99029.44;121324;1143;104567;-78
2021/01/25 03:06:31;;;;;;;21.43;9.23;;;;;;;4.63;79.72;99015.46;121626;1140;104358;-77
2021/01/25 03:09:02;;;;;;;22.33;9.07;;;;;;;4.62;79.50;99011.08;121713;1141;104471;-77
2021/01/25 03:11:32;;;;;;;21.03;8.60;;;;;;;4.62;79.38;99024.08;121663;1141;104337;-77
2021/01/25 03:14:08;;;;;;;18.77;8.70;;;;;;;4.63;79.43;99037.97;121703;1140;104347;-77
2021/01/25 03:16:38;;;;;;;20.03;9.03;;;;;;;4.60;79.75;99043.93;121749;1141;104489;-77
2021/01/25 03:19:07;;;;;;;22.27;9.90;;;;;;;4.58;79.45;99035.20;121745;1141;104397;-77
2021/01/25 03:21:36;;;;;;;21.60;9.03;;;;;;;4.57;80.26;99035.16;121707;1139;104373;-77
2021/01/25 03:24:06;;;;;;;17.43;7.73;;;;;;;4.55;80.32;99024.70;121715;1141;104335;-77
2021/01/25 03:26:35;;;;;;;19.53;9.03;;;;;;;4.52;80.34;99031.48;121709;1141;104349;-77
2021/01/25 03:29:04;;;;;;;20.33;9.87;;;;;;;4.50;80.01;99019.34;121680;1140;104359;-78
2021/01/25 03:31:32;;;;;;;21.13;9.87;;;;;;;4.52;80.26;99023.69;121606;1141;104348;-78
2021/01/25 03:34:02;;;;;;;18.87;9.30;;;;;;;4.53;79.93;99025.47;121646;1141;104345;-78
2021/01/25 03:36:31;;;;;;;21.73;9.90;;;;;;;4.55;80.22;99018.60;121754;1141;104346;-77
2021/01/25 03:39:00;;;;;;;20.97;9.97;;;;;;;4.55;80.43;99022.11;121405;1141;104494;-77
2021/01/25 03:41:29;;;;;;;21.47;9.37;;;;;;;4.56;79.82;99009.99;121726;1141;104335;-77
2021/01/25 03:43:59;;;;;;;23.77;11.07;;;;;;;4.56;79.89;99009.99;121636;1141;104364;-76
2021/01/25 03:46:28;;;;;;;22.80;10.60;;;;;;;4.55;80.36;99009.12;121637;1141;104399;-76
2021/01/25 03:48:57;;;;;;;22.03;10.50;;;;;;;4.52;80.35;99016.80;121391;1141;104339;-76
2021/01/25 03:51:26;;;;;;;22.10;10.53;;;;;;;4.49;79.78;99001.11;121341;1141;104341;-76
2021/01/25 03:53:55;;;;;;;21.97;9.83;;;;;;;4.47;80.56;98994.95;121696;1141;104342;-77
2021/01/25 03:56:23;;;;;;;23.10;10.73;;;;;;;4.46;80.64;98986.28;121704;1141;105990;-77
2021/01/25 03:59:08;;;;;;;22.27;10.53;;;;;;;4.46;79.97;98988.01;121425;1141;104392;-77
2021/01/25 04:01:39;;;;;;;23.70;10.20;;;;;;;4.42;79.89;98976.60;121706;1141;104346;-77
2021/01/25 04:04:08;;;;;;;22.83;10.70;;;;;;;4.38;80.19;98972.15;121438;1141;104854;-77
2021/01/25 04:06:37;;;;;;;24.40;10.53;;;;;;;4.39;79.87;98960.03;121756;1140;104473;-77
2021/01/25 04:09:07;;;;;;;21.90;11.07;;;;;;;4.36;80.65;98965.13;121731;1141;104578;-78
2021/01/25 04:11:37;;;;;;;24.60;11.40;;;;;;;4.34;80.04;98962.47;121721;1141;104460;-78
2021/01/25 04:14:06;;;;;;;24.23;10.83;;;;;;;4.34;80.51;98962.47;121743;1141;104806;-76
2021/01/25 04:16:36;;;;;;;22.00;10.87;;;;;;;4.31;80.62;98971.02;121644;1141;104348;-76
2021/01/25 04:19:06;;;;;;;24.93;11.00;;;;;;;4.30;80.71;98970.97;121691;1141;104499;-76
2021/01/25 04:21:41;;;;;;;20.47;10.60;;;;;;;4.29;80.75;98977.88;121644;1141;104460;-78
2021/01/25 04:24:10;;;;;;;20.30;10.23;;;;;;;4.29;80.33;98962.30;121310;1141;104495;-77
2021/01/25 04:26:41;;;;;;;19.37;8.97;;;;;;;4.32;80.79;98970.20;121627;1141;104339;-75
2021/01/25 04:29:13;;;;;;;24.40;9.93;;;;;;;4.32;80.71;98970.20;121709;1141;104361;-75
2021/01/25 04:31:42;;;;;;;18.20;8.27;;;;;;;4.32;80.30;98962.41;121675;1141;104345;-78
2021/01/25 04:34:11;;;;;;;22.63;9.77;;;;;;;4.30;80.66;98955.38;121680;1141;104457;-77
2021/01/25 04:36:40;;;;;;;26.67;10.70;;;;;;;4.30;80.81;98960.58;121727;1141;104463;-76
2021/01/25 04:39:08;;;;;;;20.47;9.80;;;;;;;4.34;81.00;98961.59;121697;1141;104930;-77
2021/01/25 04:41:39;;;;;;;21.77;9.57;;;;;;;4.37;80.34;98949.59;121692;1141;104343;-77
2021/01/25 04:44:10;;;;;;;21.40;9.73;;;;;;;4.40;80.64;98936.72;121698;1141;104335;-77
2021/01/25 04:46:40;;;;;;;22.83;10.03;;;;;;;4.43;81.14;98947.21;121631;1141;104361;-77
2021/01/25 04:49:10;;;;;;;20.10;9.87;;;;;;;4.45;80.98;98940.34;121702;1141;104458;-77
2021/01/25 04:51:39;;;;;;;22.05;9.70;;;;;;;4.42;80.79;98941.96;121664;1141;104487;-77
2021/01/25 04:54:09;;;;;;;21.90;9.37;;;;;;;4.38;80.33;98938.39;121719;1141;104401;-77
2021/01/25 04:56:39;;;;;;;24.37;10.30;;;;;;;4.40;80.48;98935.84;121724;1141;104370;-76
2021/01/25 04:59:08;;;;;;;20.20;9.17;;;;;;;4.40;80.83;98922.86;121332;1141;104342;-77
2021/01/25 05:01:37;;;;;;;23.13;9.03;;;;;;;4.41;80.81;98927.20;121664;1141;104367;-82
2021/01/25 05:04:06;;;;;;;20.20;8.33;;;;;;;4.39;80.43;98928.87;121538;1141;104313;-79
2021/01/25 05:06:37;;;;;;;19.43;8.40;;;;;;;4.41;80.25;98928.11;121542;1141;104455;-78
2021/01/25 05:09:06;;;;;;;18.13;8.07;;;;;;;4.40;80.90;98922.86;121324;1141;104351;-79
2021/01/25 05:11:35;;;;;;;20.33;9.93;;;;;;;4.37;80.92;98918.42;121559;1141;104348;-79
2021/01/25 05:14:06;;;;;;;23.07;10.13;;;;;;;4.37;80.22;98920.16;121643;1141;104845;-77
2021/01/25 05:16:35;;;;;;;18.07;8.70;;;;;;;4.38;80.75;98929.69;121623;1141;104339;-77
2021/01/25 05:19:05;;;;;;;21.40;8.70;;;;;;;4.37;80.62;98926.22;121690;1141;104337;-79
2021/01/25 05:21:41;;;;;;;16.13;7.17;;;;;;;4.38;80.99;98924.49;121255;1141;104583;-79
2021/01/25 05:24:12;;;;;;;19.35;8.20;;;;;;;4.39;80.92;98919.35;121228;1141;104843;-77
2021/01/25 05:26:53;;;;;;;20.13;8.30;;;;;;;4.45;81.24;98918.70;121735;1141;104433;-78
2021/01/25 05:29:27;;;;;;;18.57;7.90;;;;;;;4.52;80.26;98914.59;121532;1141;104455;-79
2021/01/25 05:31:57;;;;;;;21.62;9.20;;;;;;;4.58;80.56;98917.39;122542;1141;103034;-78
2021/01/25 05:34:26;;;;;;;21.20;9.13;;;;;;;4.63;80.73;98919.33;121440;1141;104952;-78
2021/01/25 05:36:55;;;;;;;23.67;10.00;;;;;;;4.68;81.10;98914.29;121495;1141;104313;-78
2021/01/25 05:39:32;;;;;;;20.80;9.75;;;;;;;4.72;81.03;98912.67;121205;1141;104417;-81
2021/01/25 05:42:01;;;;;;;23.80;9.13;;;;;;;4.75;80.49;98907.58;121750;1141;104332;-78
2021/01/25 05:44:33;;;;;;;21.40;8.43;;;;;;;4.77;80.94;98903.30;121025;1141;104462;-79
2021/01/25 05:47:09;;;;;;;22.32;9.08;;;;;;;4.79;81.13;98893.86;121552;1141;104346;-78
2021/01/25 05:49:37;;;;;;;;;;;;;;;4.86;80.82;98893.20;121492;1141;104394;-79
2021/01/25 05:52:06;;;;;;;24.73;8.43;;;;;;;4.88;80.64;98896.77;121365;1141;104476;-79
2021/01/25 05:54:35;;;;;;;19.43;7.37;;;;;;;4.95;80.76;98895.23;122922;1141;102151;-78
2021/01/25 05:57:05;;;;;;;16.93;7.63;;;;;;;5.02;81.18;98884.22;123345;1140;102189;-80
2021/01/25 05:59:33;;;;;;;18.13;7.93;;;;;;;5.10;81.12;98882.73;122997;1139;103040;-79
2021/01/25 06:02:04;;;;;;;17.20;7.27;;;;;;;5.17;81.12;98876.90;122225;1141;102768;-78
2021/01/25 06:04:34;;;;;;;17.70;7.47;;;;;;;5.23;80.76;98876.19;121363;1141;104457;-78
2021/01/25 06:07:08;;;;;;;16.53;6.93;;;;;;;5.26;80.81;98873.68;121513;1141;104340;-79
2021/01/25 06:09:51;;;;;;;18.43;7.47;;;;;;;5.30;80.37;98869.44;121628;1141;104359;-78
2021/01/25 06:12:26;;;;;;;21.80;8.03;;;;;;;5.34;81.08;98859.18;121641;1141;104336;-78
2021/01/25 06:15:04;;;;;;;18.30;7.60;;;;;;;5.37;81.19;98853.20;121392;1141;104377;-79
2021/01/25 06:17:35;;;;;;;20.10;8.33;;;;;;;5.36;80.93;98859.23;121660;1141;104349;-80
2021/01/25 06:20:09;;;;;;;22.70;8.40;;;;;;;5.40;81.08;98855.89;121595;1141;104495;-77
2021/01/25 06:22:51;;;;;;;21.02;7.75;;;;;;;5.44;80.88;98854.25;121578;1141;104394;-77
2021/01/25 06:25:37;;;;;;;21.20;8.30;;;;;;;5.51;81.07;98853.61;121632;1141;104626;-80
2021/01/25 06:28:06;;;;;;;23.67;7.50;;;;;;;5.55;81.26;98848.55;121389;1141;104487;-78
2021/01/25 06:30:36;;;;;;;19.87;7.50;;;;;;;5.61;81.22;98853.06;121343;1141;104343;-80
2021/01/25 06:33:06;;;;;;;20.47;7.57;;;;;;;5.67;81.09;98848.03;121298;1141;104476;-78
2021/01/25 06:35:39;;;;;;;19.87;6.27;;;;;;;5.75;80.86;98849.13;121264;1141;104342;-80
2021/01/25 06:41:37;;;;;;;21.90;8.50;;;;;;;5.82;81.25;98844.09;120929;1141;104372;-81
2021/01/25 06:44:09;;;;;;;27.33;9.40;;;;;;;5.84;80.99;98845.88;121204;1141;103190;-79
2021/01/25 06:46:43;;;;;;;22.37;8.87;;;;;;;5.89;80.96;98831.28;121031;1141;104473;-81
2021/01/25 06:49:12;;;;;;;22.10;8.70;;;;;;;5.97;81.13;98828.93;121062;1141;104322;-79
2021/01/25 06:51:43;;;;;;;21.80;8.77;;;;;;;6.05;81.20;98819.59;121384;1141;104467;-81
2021/01/25 06:54:13;;;;;;;25.57;8.77;;;;;;;6.15;81.22;98825.05;120906;1141;104438;-81
2021/01/25 06:56:50;;;;;;;24.60;9.23;;;;;;;6.22;81.47;98808.75;121238;1141;104345;-80
2021/01/25 06:59:22;;;;;;;26.10;9.00;;;;;;;6.29;81.31;98811.55;120885;1141;104428;-80
2021/01/25 07:01:53;;;;;;;25.07;9.27;;;;;;;6.38;81.29;98808.28;122985;1139;101856;-81
2021/01/25 07:04:24;;;;;;;25.73;9.97;;;;;;;6.47;81.36;98807.64;122512;1140;104464;-77
2021/01/25 07:06:56;;;;;;;24.40;10.77;;;;;;;6.52;81.18;98815.58;121088;1141;104337;-81
2021/01/25 07:09:29;;;;;;;27.87;10.97;;;;;;;6.56;81.13;98818.30;121071;1141;104471;-79
2021/01/25 07:12:00;;;;;;;30.60;11.27;;;;;;;6.63;81.51;98808.89;121064;1141;104241;-74
2021/01/25 07:14:31;;;;;;;31.37;11.33;;;;;;;6.68;81.52;98807.27;121711;1141;104367;-77
2021/01/25 07:17:11;;;;;;;31.97;10.93;;;;;;;6.73;81.42;98797.86;120811;1141;104999;-78
2021/01/25 07:19:41;;;;;;;27.50;11.15;;;;;;;6.79;81.59;98798.00;120981;1141;104544;-80
2021/01/25 07:22:11;;;;;;;26.27;9.60;;;;;;;6.87;81.83;98792.94;121247;1141;104383;-78
2021/01/25 07:24:41;;;;;;;33.00;11.50;;;;;;;6.96;81.81;98797.49;121106;1141;104932;-79
2021/01/25 07:27:13;;;;;;;28.63;10.93;;;;;;;7.06;81.97;98798.58;120845;1141;104390;-80
2021/01/25 07:29:45;;;;;;;30.50;11.27;;;;;;;7.16;81.61;98793.59;120978;1141;104369;-78
2021/01/25 07:32:15;;;;;;;27.70;11.10;;;;;;;7.29;81.75;98786.03;122744;1140;103005;-78
2021/01/25 07:34:46;;;;;;;29.00;11.00;;;;;;;7.39;81.63;98788.01;121370;1141;104543;-78
2021/01/25 07:37:19;;;;;;;29.30;10.77;;;;;;;7.50;81.36;98780.40;121323;1141;104460;-80
2021/01/25 07:39:50;;;;;;;30.40;11.37;;;;;;;7.59;81.36;98777.98;123246;1141;101839;-79
2021/01/25 07:42:20;;;;;;;33.93;12.77;;;;;;;7.68;81.50;98777.26;123322;1140;103562;-79
2021/01/25 07:44:51;;;;;;;35.30;14.80;;;;;;;7.74;81.97;98779.99;121316;1141;104346;-81
2021/01/25 07:47:22;;;;;;;28.70;12.30;;;;;;;7.81;81.82;98771.44;121131;1141;104398;-79
2021/01/25 07:49:51;;;;;;;30.10;11.60;;;;;;;7.85;82.07;98774.98;121398;1141;104442;-78
2021/01/25 07:52:23;;;;;;;32.90;11.73;;;;;;;7.89;81.34;98759.39;121309;1141;104369;-77
2021/01/25 07:54:52;;;;;;;28.10;10.30;;;;;;;7.98;82.09;98763.02;121192;1141;104420;-78
2021/01/25 07:57:28;;;;;;;28.83;11.20;;;;;;;8.04;81.62;98760.52;121272;1141;104505;-80
2021/01/25 07:59:59;;;;;;;26.03;10.20;;;;;;;8.13;81.73;98757.20;120865;1141;104379;-79
2021/01/25 08:02:29;;;;;;;26.00;9.87;;;;;;;8.20;81.97;98752.11;123143;1139;102773;-81
2021/01/25 08:05:01;;;;;;;29.37;8.87;;;;;;;8.28;81.90;98737.43;121312;1140;104359;-81
2021/01/25 08:07:31;;;;;;;20.93;8.93;;;;;;;8.33;81.39;98728.80;121375;1141;104457;-80
2021/01/25 08:10:00;;;;;;;25.30;10.50;;;;;;;8.40;81.79;98730.67;121306;1141;104355;-81
2021/01/25 08:12:30;;;;;;;29.43;9.90;;;;;;;8.44;81.49;98735.10;121135;1141;104385;-79
2021/01/25 08:15:08;;;;;;;23.93;9.20;;;;;;;8.51;81.80;98738.68;121314;1141;104372;-82
2021/01/25 08:17:42;;;;;;;27.60;9.97;;;;;;;8.53;81.76;98743.09;121179;1141;104431;-79
2021/01/25 08:20:20;;;;;;;24.00;8.37;;;;;;;8.54;82.07;98744.86;121058;1144;104358;-81
2021/01/25 08:22:56;;;;;;;24.60;9.20;;;;;;;8.56;81.42;98739.66;121251;1144;104517;-80
2021/01/25 08:25:29;;;;;;;24.53;8.60;;;;;;;8.57;81.75;98734.45;121074;1144;104511;-81
2021/01/25 08:28:05;;;;;;;27.23;8.60;;;;;;;8.63;81.53;98724.09;121069;1144;104496;-80
2021/01/25 08:30:36;;;;;;;;;;;;;;;8.69;81.54;98725.89;120945;1143;104500;-80
2021/01/25 08:33:08;;;;;;;27.60;8.47;;;;;;;8.72;82.19;98718.09;120914;1143;104647;-80
2021/01/25 08:35:52;;;;;;;26.80;9.00;;;;;;;8.74;81.44;98710.27;120763;1144;104667;-81
2021/01/25 08:38:30;;;;;;;26.40;8.87;;;;;;;8.76;82.11;98706.83;120858;1144;104561;-79
2021/01/25 08:41:02;;;;;;;25.87;8.87;;;;;;;8.79;81.47;98704.27;120921;1144;104533;-80
2021/01/25 08:43:33;;;;;;;31.13;9.00;;;;;;;8.84;82.12;98708.69;120851;1143;104355;-81
2021/01/25 08:46:13;;;;;;;22.53;8.50;;;;;;;8.87;81.64;98693.91;120902;1143;104383;-84
2021/01/25 08:48:44;;;;;;;23.27;7.60;;;;;;;8.90;81.46;98688.72;120845;1144;104317;-81
2021/01/25 08:51:16;;;;;;;28.30;9.20;;;;;;;8.92;81.97;98686.98;121039;1141;104533;-82
2021/01/25 08:53:46;;;;;;;27.20;8.93;;;;;;;8.95;81.58;98678.31;121365;1141;104380;-82
2021/01/25 08:56:19;;;;;;;21.07;7.07;;;;;;;8.98;81.44;98684.45;121233;1140;104376;-84
2021/01/25 08:58:51;;;;;;;21.33;7.47;;;;;;;9.02;81.84;98674.03;121375;1141;104408;-85
2021/01/25 09:01:28;;;;;;;25.43;8.43;;;;;;;9.06;81.82;98678.45;121456;1141;104455;-83
2021/01/25 09:04:01;;;;;;;19.43;7.37;;;;;;;9.08;82.14;98679.34;121372;1141;104436;-82
2021/01/25 09:06:30;;;;;;;20.53;7.20;;;;;;;9.10;81.68;98662.81;121344;1140;104501;-84
2021/01/25 09:09:02;;;;;;;22.63;8.37;;;;;;;9.13;82.10;98672.42;121298;1141;104365;-82
2021/01/25 09:11:39;;;;;;;19.43;7.43;;;;;;;9.18;81.52;98662.91;121275;1141;104487;-82
2021/01/25 09:14:09;;;;;;;27.13;8.37;;;;;;;9.24;82.15;98654.23;121248;1141;104430;-82
2021/01/25 09:16:39;;;;;;;25.20;7.97;;;;;;;9.26;81.66;98658.63;120961;1141;104943;-82
2021/01/25 09:19:08;;;;;;;23.70;8.93;;;;;;;9.26;82.14;98656.02;122367;1141;103033;-82
2021/01/25 09:21:38;;;;;;;27.70;8.57;;;;;;;9.26;82.05;98648.16;121467;1141;104445;-83
2021/01/25 09:24:10;;;;;;;24.90;8.73;;;;;;;9.29;81.50;98652.56;121541;1141;104439;-80
2021/01/25 09:26:39;;;;;;;24.50;8.10;;;;;;;9.27;81.67;98644.69;121095;1141;104338;-82
2021/01/25 09:29:09;;;;;;;25.13;8.03;;;;;;;9.27;81.51;98644.69;121474;1141;104429;-81
2021/01/25 09:31:40;;;;;;;25.53;6.60;;;;;;;9.24;82.04;98635.91;121050;1144;104530;-81
2021/01/25 09:34:11;;;;;;;21.90;6.20;;;;;;;9.21;81.33;98625.41;121027;1144;104476;-81
2021/01/25 09:36:41;;;;;;;23.83;7.13;;;;;;;9.22;81.48;98628.04;121048;1144;104405;-79
2021/01/25 09:39:14;;;;;;;22.63;6.53;;;;;;;9.20;81.64;98621.92;121042;1144;104431;-81
2021/01/25 09:41:47;;;;;;;22.30;7.75;;;;;;;9.19;81.63;98622.77;121099;1142;104818;-83
2021/01/25 09:44:19;;;;;;;25.57;7.60;;;;;;;9.20;81.90;98608.84;122967;1142;102282;-82
2021/01/25 09:46:55;;;;;;;22.47;7.10;;;;;;;9.23;82.22;98606.25;121635;1143;104393;-83
2021/01/25 09:49:30;;;;;;;23.80;8.23;;;;;;;9.27;81.49;98600.20;121267;1143;104393;-81
2021/01/25 09:52:02;;;;;;;27.63;7.60;;;;;;;9.34;82.18;98591.53;121001;1144;104533;-80
2021/01/25 09:54:32;;;;;;;28.20;7.73;;;;;;;9.43;81.72;98585.52;121089;1144;104361;-82
2021/01/25 09:57:01;;;;;;;22.63;6.97;;;;;;;9.52;82.09;98574.23;121062;1143;104367;-82
2021/01/25 09:59:34;;;;;;;23.07;7.73;;;;;;;9.57;82.14;98579.52;120976;1142;104428;-82
2021/01/25 10:02:03;;;;;;;23.53;6.67;;;;;;;9.61;81.47;98566.46;121001;1145;104537;-81
2021/01/25 10:04:32;;;;;;;20.57;6.73;;;;;;;9.66;81.44;98559.55;120984;1144;104455;-82
2021/01/25 10:07:02;;;;;;;26.93;8.17;;;;;;;9.70;82.00;98555.20;121204;1144;104428;-81
2021/01/25 10:09:31;;;;;;;30.47;9.37;;;;;;;9.73;82.08;98551.73;121233;1144;104471;-83
2021/01/25 10:12:05;;;;;;;29.10;9.30;;;;;;;9.70;81.78;98550.83;120960;1143;104489;-84
2021/01/25 10:15:06;;;;;;;22.77;8.43;;;;;;;9.68;81.47;98542.09;121026;1144;104793;-84
2021/01/25 10:17:41;;;;;;;25.17;7.90;;;;;;;9.66;81.91;98535.97;120825;1144;104492;-85
2021/01/25 10:20:15;;;;;;;21.67;7.10;;;;;;;9.67;82.02;98536.84;120625;1144;105063;-84
2021/01/25 10:22:51;;;;;;;23.90;6.63;;;;;;;9.70;81.55;98529.01;120783;1144;104815;-85
2021/01/25 10:25:20;;;;;;;21.70;6.43;;;;;;;9.67;81.88;98532.47;120765;1144;104397;-84
2021/01/25 10:27:50;;;;;;;24.20;7.80;;;;;;;9.70;81.95;98531.63;120756;1144;105009;-85
2021/01/25 10:30:21;;;;;;;24.63;8.07;;;;;;;9.70;81.83;98527.26;120648;1144;104369;-83
2021/01/25 10:32:50;;;;;;;21.10;6.13;;;;;;;9.73;81.54;98517.69;120972;1144;104435;-84
2021/01/25 10:35:20;;;;;;;23.30;7.57;;;;;;;9.71;81.40;98518.55;121139;1144;104510;-81
2021/01/25 10:37:57;;;;;;;20.80;7.00;;;;;;;9.73;81.43;98513.31;121018;1144;104490;-84
2021/01/25 10:40:40;;;;;;;23.20;7.50;;;;;;;9.78;82.14;98503.73;120990;1144;104563;-82
2021/01/25 10:43:21;;;;;;;25.77;7.83;;;;;;;9.82;81.33;98504.66;120907;1144;104422;-83
2021/01/25 10:45:52;;;;;;;21.67;7.50;;;;;;;9.80;81.65;98502.03;120887;1143;104433;-83
2021/01/25 10:48:22;;;;;;;23.70;6.67;;;;;;;9.82;81.57;98504.66;120998;1141;104423;-80
2021/01/25 10:50:52;;;;;;;19.63;5.97;;;;;;;9.80;81.51;98504.65;121005;1143;104489;-82
2021/01/25 10:53:21;;;;;;;18.50;6.03;;;;;;;9.80;81.77;98494.17;120921;1144;104547;-85
2021/01/25 10:55:51;;;;;;;22.80;6.95;;;;;;;9.80;81.69;98490.66;120803;1144;104657;-81
2021/01/25 10:58:20;;;;;;;20.50;6.60;;;;;;;9.81;81.54;98481.94;120770;1143;104402;-80
2021/01/25 11:00:52;;;;;;;23.43;7.10;;;;;;;9.84;81.97;98467.11;120777;1144;104389;-81
2021/01/25 11:03:22;;;;;;;25.47;7.00;;;;;;;9.87;81.43;98468.88;120828;1144;104611;-81
2021/01/25 11:05:53;;;;;;;19.53;6.43;;;;;;;9.89;81.81;98461.89;120849;1144;104844;-81
2021/01/25 11:08:25;;;;;;;19.40;6.37;;;;;;;9.92;81.96;98464.53;120748;1143;104368;-80
2021/01/25 11:10:55;;;;;;;23.83;6.13;;;;;;;9.93;81.99;98455.82;120766;1144;104548;-82
2021/01/25 11:13:26;;;;;;;21.80;6.63;;;;;;;9.92;81.92;98456.67;120728;1144;104578;-78
2021/01/25 11:15:55;;;;;;;22.33;7.67;;;;;;;9.86;81.87;98456.64;120735;1144;104474;-80
2021/01/25 11:18:25;;;;;;;19.50;6.47;;;;;;;9.81;82.20;98456.61;120789;1145;104419;-81
2021/01/25 11:20:59;;;;;;;21.57;7.83;;;;;;;9.75;82.02;98442.61;120790;1144;104541;-80
2021/01/25 11:23:30;;;;;;;25.67;6.67;;;;;;;9.74;81.84;98444.37;122382;1143;103370;-78
2021/01/25 11:26:01;;;;;;;21.87;6.77;;;;;;;9.70;81.79;98426.88;122850;1142;102260;-80
2021/01/25 11:28:33;;;;;;;20.67;6.60;;;;;;;9.80;81.86;98427.79;120535;1145;104454;-81
2021/01/25 11:31:07;;;;;;;21.43;6.30;;;;;;;9.80;81.80;98425.17;120720;1142;104631;-80
2021/01/25 11:33:38;;;;;;;22.03;6.50;;;;;;;9.78;81.78;98419.06;120723;1142;104534;-79
2021/01/25 11:36:08;;;;;;;24.73;7.00;;;;;;;9.80;82.19;98415.59;120687;1143;104544;-80